Aviation Digital Data Service (ADDS)

Output produced by METARs form (0752 UTC 18 January 2018)
found at http://aviationweather.gov/adds/metars/
 
KGON 180539Z 1806/1906 33008KT P6SM SKC 
     FM181500 32012G20KT P6SM SKC 
     FM182300 31007KT P6SM SKC